sensor_id;sensor_type;location;lat;lon;timestamp;pressure;altitude;pressure_sealevel;temperature;humidity
21203;BME280;10759;51.982;9.232;2023-02-11T00:01:21;101884.53;;;5.04;100.00
21203;BME280;10759;51.982;9.232;2023-02-11T00:03:52;101967.28;;;5.45;100.00
21203;BME280;10759;51.982;9.232;2023-02-11T00:06:21;101953.19;;;5.58;100.00
21203;BME280;10759;51.982;9.232;2023-02-11T00:08:49;101953.25;;;5.65;100.00
21203;BME280;10759;51.982;9.232;2023-02-11T00:11:19;101949.72;;;5.66;100.00
21203;BME280;10759;51.982;9.232;2023-02-11T00:13:47;101959.44;;;5.59;100.00
21203;BME280;10759;51.982;9.232;2023-02-11T00:16:17;101955.88;;;5.60;100.00
21203;BME280;10759;51.982;9.232;2023-02-11T00:18:46;101836.63;;;4.94;100.00
21203;BME280;10759;51.982;9.232;2023-02-11T00:21:18;101954.22;;;5.71;100.00
21203;BME280;10759;51.982;9.232;2023-02-11T00:23:47;101889.19;;;5.31;100.00
21203;BME280;10759;51.982;9.232;2023-02-11T00:26:17;101963.06;;;5.72;100.00
21203;BME280;10759;51.982;9.232;2023-02-11T00:28:46;101953.28;;;5.68;100.00
21203;BME280;10759;51.982;9.232;2023-02-11T00:31:15;101918.53;;;5.43;100.00
21203;BME280;10759;51.982;9.232;2023-02-11T00:33:44;101899.88;;;5.37;100.00
21203;BME280;10759;51.982;9.232;2023-02-11T00:36:14;101963.97;;;5.75;100.00
21203;BME280;10759;51.982;9.232;2023-02-11T00:38:47;101956.81;;;5.68;100.00
21203;BME280;10759;51.982;9.232;2023-02-11T00:41:16;101951.53;;;5.71;100.00
21203;BME280;10759;51.982;9.232;2023-02-11T00:43:44;101928.41;;;5.59;100.00
21203;BME280;10759;51.982;9.232;2023-02-11T00:46:12;101946.25;;;5.74;100.00
21203;BME280;10759;51.982;9.232;2023-02-11T00:48:41;101942.72;;;5.80;100.00
21203;BME280;10759;51.982;9.232;2023-02-11T00:51:09;101949.78;;;5.78;100.00
21203;BME280;10759;51.982;9.232;2023-02-11T00:53:38;101948.00;;;5.75;100.00
21203;BME280;10759;51.982;9.232;2023-02-11T00:56:07;101933.78;;;5.67;100.00
21203;BME280;10759;51.982;9.232;2023-02-11T00:58:36;101923.16;;;5.69;100.00
21203;BME280;10759;51.982;9.232;2023-02-11T01:01:04;101925.81;;;5.73;100.00
21203;BME280;10759;51.982;9.232;2023-02-11T01:03:32;101929.38;;;5.75;100.00
21203;BME280;10759;51.982;9.232;2023-02-11T01:06:00;101950.72;;;5.81;100.00
21203;BME280;10759;51.982;9.232;2023-02-11T01:08:28;101948.06;;;5.83;100.00
21203;BME280;10759;51.982;9.232;2023-02-11T01:10:59;101955.09;;;5.72;100.00
21203;BME280;10759;51.982;9.232;2023-02-11T01:13:31;101943.53;;;5.70;100.00
21203;BME280;10759;51.982;9.232;2023-02-11T01:15:59;101942.75;;;5.81;100.00
21203;BME280;10759;51.982;9.232;2023-02-11T01:18:27;101941.78;;;5.73;100.00
21203;BME280;10759;51.982;9.232;2023-02-11T01:20:55;101946.22;;;5.73;100.00
21203;BME280;10759;51.982;9.232;2023-02-11T01:23:23;101951.59;;;5.79;100.00
21203;BME280;10759;51.982;9.232;2023-02-11T01:25:52;101939.91;;;5.60;100.00
21203;BME280;10759;51.982;9.232;2023-02-11T01:28:23;101939.91;;;5.58;100.00
21203;BME280;10759;51.982;9.232;2023-02-11T01:30:53;101958.66;;;5.74;100.00
21203;BME280;10759;51.982;9.232;2023-02-11T01:33:22;101957.69;;;5.64;100.00
21203;BME280;10759;51.982;9.232;2023-02-11T01:35:49;101960.31;;;5.59;100.00
21203;BME280;10759;51.982;9.232;2023-02-11T01:38:20;101965.63;;;5.61;100.00
21203;BME280;10759;51.982;9.232;2023-02-11T01:40:53;101857.88;;;4.94;100.00
21203;BME280;10759;51.982;9.232;2023-02-11T01:43:22;101958.47;;;5.51;100.00
21203;BME280;10759;51.982;9.232;2023-02-11T01:46:22;101951.34;;;5.48;100.00
21203;BME280;10759;51.982;9.232;2023-02-11T01:48:57;101941.69;;;5.58;100.00
21203;BME280;10759;51.982;9.232;2023-02-11T01:51:29;101945.13;;;5.42;100.00
21203;BME280;10759;51.982;9.232;2023-02-11T01:54:03;101888.16;;;5.12;100.00
21203;BME280;10759;51.982;9.232;2023-02-11T01:56:51;101892.56;;;5.11;100.00
21203;BME280;10759;51.982;9.232;2023-02-11T01:59:43;101930.13;;;5.53;100.00
21203;BME280;10759;51.982;9.232;2023-02-11T02:02:17;101956.75;;;5.54;100.00
21203;BME280;10759;51.982;9.232;2023-02-11T02:04:51;101932.78;;;5.51;100.00
21203;BME280;10759;51.982;9.232;2023-02-11T02:07:29;101941.75;;;5.64;100.00
21203;BME280;10759;51.982;9.232;2023-02-11T02:10:04;101945.19;;;5.49;100.00
21203;BME280;10759;51.982;9.232;2023-02-11T02:12:35;101851.84;;;5.12;100.00
21203;BME280;10759;51.982;9.232;2023-02-11T02:15:20;101934.56;;;5.54;100.00
21203;BME280;10759;51.982;9.232;2023-02-11T02:17:57;101940.75;;;5.50;100.00
21203;BME280;10759;51.982;9.232;2023-02-11T02:20:58;101938.19;;;5.65;100.00
21203;BME280;10759;51.982;9.232;2023-02-11T02:23:49;101905.25;;;5.48;100.00
21203;BME280;10759;51.982;9.232;2023-02-11T02:32:42;101926.59;;;5.55;100.00
21203;BME280;10759;51.982;9.232;2023-02-11T02:35:25;101917.72;;;5.55;100.00
21203;BME280;10759;51.982;9.232;2023-02-11T02:38:00;101913.25;;;5.48;100.00
21203;BME280;10759;51.982;9.232;2023-02-11T02:40:33;101895.47;;;5.44;100.00
21203;BME280;10759;51.982;9.232;2023-02-11T02:43:03;101863.44;;;5.24;100.00
21203;BME280;10759;51.982;9.232;2023-02-11T02:45:32;101907.06;;;5.50;100.00
21203;BME280;10759;51.982;9.232;2023-02-11T02:48:01;101909.69;;;5.49;100.00
21203;BME280;10759;51.982;9.232;2023-02-11T02:50:32;101909.78;;;5.61;100.00
21203;BME280;10759;51.982;9.232;2023-02-11T02:53:13;101898.09;;;5.37;100.00
21203;BME280;10759;51.982;9.232;2023-02-11T02:55:59;101900.78;;;5.42;100.00
21203;BME280;10759;51.982;9.232;2023-02-11T02:58:49;101903.53;;;5.53;100.00
21203;BME280;10759;51.982;9.232;2023-02-11T03:01:27;101917.75;;;5.56;100.00
21203;BME280;10759;51.982;9.232;2023-02-11T03:04:05;101907.03;;;5.44;100.00
21203;BME280;10759;51.982;9.232;2023-02-11T03:06:44;101900.78;;;5.44;100.00
21203;BME280;10759;51.982;9.232;2023-02-11T03:09:21;101902.56;;;5.42;100.00
21203;BME280;10759;51.982;9.232;2023-02-11T03:11:50;101907.78;;;5.28;100.00
21203;BME280;10759;51.982;9.232;2023-02-11T03:14:20;101902.50;;;5.32;100.00
21203;BME280;10759;51.982;9.232;2023-02-11T03:16:52;101891.91;;;5.40;100.00
21203;BME280;10759;51.982;9.232;2023-02-11T03:19:25;101839.41;;;5.10;100.00
21203;BME280;10759;51.982;9.232;2023-02-11T03:21:56;101903.47;;;5.42;100.00
21203;BME280;10759;51.982;9.232;2023-02-11T03:24:28;101862.47;;;5.12;100.00
21203;BME280;10759;51.982;9.232;2023-02-11T03:27:00;101886.53;;;5.31;100.00
21203;BME280;10759;51.982;9.232;2023-02-11T03:29:34;101890.06;;;5.31;100.00
21203;BME280;10759;51.982;9.232;2023-02-11T03:32:06;101885.72;;;5.41;100.00
21203;BME280;10759;51.982;9.232;2023-02-11T03:34:44;101882.19;;;5.45;100.00
21203;BME280;10759;51.982;9.232;2023-02-11T03:37:16;101886.63;;;5.46;100.00
21203;BME280;10759;51.982;9.232;2023-02-11T03:39:50;101887.41;;;5.31;100.00
21203;BME280;10759;51.982;9.232;2023-02-11T03:42:22;101881.31;;;5.45;100.00
21203;BME280;10759;51.982;9.232;2023-02-11T03:44:57;101875.16;;;5.50;100.00
21203;BME280;10759;51.982;9.232;2023-02-11T03:47:28;101863.47;;;5.31;100.00
21203;BME280;10759;51.982;9.232;2023-02-11T03:50:02;101796.69;;;4.87;100.00
21203;BME280;10759;51.982;9.232;2023-02-11T03:52:33;101868.84;;;5.37;100.00
21203;BME280;10759;51.982;9.232;2023-02-11T03:55:02;101863.47;;;5.31;100.00
21203;BME280;10759;51.982;9.232;2023-02-11T03:57:32;101868.91;;;5.45;100.00
21203;BME280;10759;51.982;9.232;2023-02-11T04:00:00;101834.16;;;5.21;100.00
21203;BME280;10759;51.982;9.232;2023-02-11T04:02:38;101870.72;;;5.49;100.00
21203;BME280;10759;51.982;9.232;2023-02-11T04:05:13;101865.28;;;5.35;100.00
21203;BME280;10759;51.982;9.232;2023-02-11T04:07:41;101865.22;;;5.26;100.00
21203;BME280;10759;51.982;9.232;2023-02-11T04:10:10;101853.81;;;5.40;100.00
21203;BME280;10759;51.982;9.232;2023-02-11T04:12:39;101858.28;;;5.47;100.00
21203;BME280;10759;51.982;9.232;2023-02-11T04:15:07;101864.44;;;5.40;100.00
21203;BME280;10759;51.982;9.232;2023-02-11T04:17:35;101845.00;;;5.47;100.00
21203;BME280;10759;51.982;9.232;2023-02-11T04:20:04;101857.44;;;5.54;100.00
21203;BME280;10759;51.982;9.232;2023-02-11T04:22:33;101852.09;;;5.51;100.00
21203;BME280;10759;51.982;9.232;2023-02-11T04:25:01;101865.31;;;5.40;100.00
21203;BME280;10759;51.982;9.232;2023-02-11T04:27:29;101868.81;;;5.33;100.00
21203;BME280;10759;51.982;9.232;2023-02-11T04:29:57;101842.91;;;5.04;100.00
21203;BME280;10759;51.982;9.232;2023-02-11T04:32:25;101878.53;;;5.31;100.00
21203;BME280;10759;51.982;9.232;2023-02-11T04:34:53;101876.81;;;5.34;100.00
21203;BME280;10759;51.982;9.232;2023-02-11T04:37:21;101883.06;;;5.40;100.00
21203;BME280;10759;51.982;9.232;2023-02-11T04:39:50;101881.31;;;5.42;100.00
21203;BME280;10759;51.982;9.232;2023-02-11T04:42:18;101875.91;;;5.29;100.00
21203;BME280;10759;51.982;9.232;2023-02-11T04:44:46;101869.66;;;5.29;100.00
21203;BME280;10759;51.982;9.232;2023-02-11T04:47:14;101872.38;;;5.36;100.00
21203;BME280;10759;51.982;9.232;2023-02-11T04:49:42;101833.22;;;5.14;100.00
21203;BME280;10759;51.982;9.232;2023-02-11T04:52:10;101868.78;;;5.27;100.00
21203;BME280;10759;51.982;9.232;2023-02-11T04:54:38;101850.09;;;5.19;100.00
21203;BME280;10759;51.982;9.232;2023-02-11T04:57:07;101671.34;;;4.21;100.00
21203;BME280;10759;51.982;9.232;2023-02-11T04:59:35;101866.28;;;5.47;100.00
21203;BME280;10759;51.982;9.232;2023-02-11T05:02:03;101868.78;;;5.31;100.00
21203;BME280;10759;51.982;9.232;2023-02-11T05:04:31;101859.97;;;5.32;100.00
21203;BME280;10759;51.982;9.232;2023-02-11T05:06:59;101854.66;;;5.38;100.00
21203;BME280;10759;51.982;9.232;2023-02-11T05:09:27;101868.84;;;5.37;100.00
21203;BME280;10759;51.982;9.232;2023-02-11T05:11:55;101852.91;;;5.41;100.00
21203;BME280;10759;51.982;9.232;2023-02-11T05:14:24;101853.81;;;5.43;100.00
21203;BME280;10759;51.982;9.232;2023-02-11T05:16:52;101848.53;;;5.47;100.00
21203;BME280;10759;51.982;9.232;2023-02-11T05:19:20;101658.19;;;4.33;100.00
21203;BME280;10759;51.982;9.232;2023-02-11T05:21:48;101789.66;;;4.87;100.00
21203;BME280;10759;51.982;9.232;2023-02-11T05:24:30;101855.56;;;5.41;100.00
21203;BME280;10759;51.982;9.232;2023-02-11T05:26:58;101845.84;;;5.43;100.00
21203;BME280;10759;51.982;9.232;2023-02-11T05:29:28;101845.78;;;5.32;100.00
21203;BME280;10759;51.982;9.232;2023-02-11T05:31:57;101843.09;;;5.27;100.00
21203;BME280;10759;51.982;9.232;2023-02-11T05:34:25;101833.38;;;5.35;100.00
21203;BME280;10759;51.982;9.232;2023-02-11T05:36:53;101844.94;;;5.41;100.00
21203;BME280;10759;51.982;9.232;2023-02-11T05:39:21;101844.97;;;5.45;100.00
21203;BME280;10759;51.982;9.232;2023-02-11T05:41:49;101837.78;;;5.30;100.00
21203;BME280;10759;51.982;9.232;2023-02-11T05:44:16;101848.47;;;5.41;100.00
21203;BME280;10759;51.982;9.232;2023-02-11T05:46:46;101862.72;;;5.45;100.00
21203;BME280;10759;51.982;9.232;2023-02-11T05:49:15;101856.50;;;5.46;100.00
21203;BME280;10759;51.982;9.232;2023-02-11T05:51:43;101858.25;;;5.44;100.00
21203;BME280;10759;51.982;9.232;2023-02-11T05:54:11;101860.91;;;5.42;100.00
21203;BME280;10759;51.982;9.232;2023-02-11T05:56:39;101870.69;;;5.45;100.00
21203;BME280;10759;51.982;9.232;2023-02-11T05:59:11;101861.81;;;5.49;100.00
21203;BME280;10759;51.982;9.232;2023-02-11T06:01:39;101872.41;;;5.40;100.00
21203;BME280;10759;51.982;9.232;2023-02-11T06:04:08;101831.63;;;5.37;100.00
21203;BME280;10759;51.982;9.232;2023-02-11T06:06:36;101863.66;;;5.56;100.00
21203;BME280;10759;51.982;9.232;2023-02-11T06:09:04;101862.72;;;5.48;100.00
21203;BME280;10759;51.982;9.232;2023-02-11T06:11:32;101864.50;;;5.50;100.00
21203;BME280;10759;51.982;9.232;2023-02-11T06:14:00;101867.22;;;5.58;100.00
21203;BME280;10759;51.982;9.232;2023-02-11T06:16:28;101869.91;;;5.63;100.00
21203;BME280;10759;51.982;9.232;2023-02-11T06:18:56;101715.97;;;4.65;100.00
21203;BME280;10759;51.982;9.232;2023-02-11T06:21:25;101868.16;;;5.65;100.00
21203;BME280;10759;51.982;9.232;2023-02-11T06:24:09;101866.34;;;5.60;100.00
21203;BME280;10759;51.982;9.232;2023-02-11T06:26:37;101864.59;;;5.64;100.00
21203;BME280;10759;51.982;9.232;2023-02-11T06:29:05;101865.44;;;5.57;100.00
21203;BME280;10759;51.982;9.232;2023-02-11T06:31:32;101862.78;;;5.54;100.00
21203;BME280;10759;51.982;9.232;2023-02-11T06:34:00;101817.41;;;5.29;100.00
21203;BME280;10759;51.982;9.232;2023-02-11T06:36:30;101857.44;;;5.52;100.00
21203;BME280;10759;51.982;9.232;2023-02-11T06:38:58;101863.66;;;5.57;100.00
21203;BME280;10759;51.982;9.232;2023-02-11T06:41:26;101865.44;;;5.54;100.00
21203;BME280;10759;51.982;9.232;2023-02-11T06:43:54;101885.03;;;5.71;100.00
21203;BME280;10759;51.982;9.232;2023-02-11T06:46:21;101878.75;;;5.63;100.00
21203;BME280;10759;51.982;9.232;2023-02-11T06:48:50;101868.16;;;5.68;100.00
21203;BME280;10759;51.982;9.232;2023-02-11T06:51:18;101868.19;;;5.75;100.00
21203;BME280;10759;51.982;9.232;2023-02-11T06:53:47;101868.09;;;5.57;100.00
21203;BME280;10759;51.982;9.232;2023-02-11T06:56:16;101874.34;;;5.65;100.00
21203;BME280;10759;51.982;9.232;2023-02-11T06:58:45;101877.00;;;5.65;100.00
21203;BME280;10759;51.982;9.232;2023-02-11T07:01:15;101839.63;;;5.41;100.00
21203;BME280;10759;51.982;9.232;2023-02-11T07:03:44;101876.06;;;5.58;100.00
21203;BME280;10759;51.982;9.232;2023-02-11T07:06:14;101873.38;;;5.52;100.00
21203;BME280;10759;51.982;9.232;2023-02-11T07:08:43;101877.91;;;5.64;100.00
21203;BME280;10759;51.982;9.232;2023-02-11T07:11:14;101856.50;;;5.46;100.00
21203;BME280;10759;51.982;9.232;2023-02-11T07:13:43;101883.19;;;5.61;100.00
21203;BME280;10759;51.982;9.232;2023-02-11T07:16:14;101851.19;;;5.49;100.00
21203;BME280;10759;51.982;9.232;2023-02-11T07:18:42;101881.44;;;5.63;100.00
21203;BME280;10759;51.982;9.232;2023-02-11T07:21:12;101882.34;;;5.68;100.00
21203;BME280;10759;51.982;9.232;2023-02-11T07:23:41;101866.38;;;5.65;100.00
21203;BME280;10759;51.982;9.232;2023-02-11T07:26:10;101877.97;;;5.78;100.00
21203;BME280;10759;51.982;9.232;2023-02-11T07:28:40;101851.25;;;5.55;100.00
21203;BME280;10759;51.982;9.232;2023-02-11T07:31:10;101870.75;;;5.57;100.00
21203;BME280;10759;51.982;9.232;2023-02-11T07:33:38;101888.53;;;5.63;100.00
21203;BME280;10759;51.982;9.232;2023-02-11T07:36:08;101727.59;;;4.78;100.00
21203;BME280;10759;51.982;9.232;2023-02-11T07:38:37;101884.16;;;5.75;100.00
21203;BME280;10759;51.982;9.232;2023-02-11T07:41:07;101708.91;;;4.67;100.00
21203;BME280;10759;51.982;9.232;2023-02-11T07:43:36;101888.56;;;5.67;100.00
21203;BME280;10759;51.982;9.232;2023-02-11T07:46:10;101888.53;;;5.64;100.00
21203;BME280;10759;51.982;9.232;2023-02-11T07:48:38;101896.63;;;5.81;100.00
21203;BME280;10759;51.982;9.232;2023-02-11T07:51:08;101894.84;;;5.83;100.00
21203;BME280;10759;51.982;9.232;2023-02-11T07:53:36;101894.78;;;5.72;100.00
21203;BME280;10759;51.982;9.232;2023-02-11T07:56:05;101893.09;;;5.85;100.00
21203;BME280;10759;51.982;9.232;2023-02-11T07:58:34;101888.56;;;5.73;100.00
21203;BME280;10759;51.982;9.232;2023-02-11T08:01:03;101898.34;;;5.73;100.00
21203;BME280;10759;51.982;9.232;2023-02-11T08:03:34;101904.69;;;5.93;100.00
21203;BME280;10759;51.982;9.232;2023-02-11T08:06:03;101892.09;;;5.65;100.00
21203;BME280;10759;51.982;9.232;2023-02-11T08:08:31;101909.84;;;5.70;100.00
21203;BME280;10759;51.982;9.232;2023-02-11T08:11:04;101899.22;;;5.73;100.00
21203;BME280;10759;51.982;9.232;2023-02-11T08:13:33;101915.16;;;5.70;100.00
21203;BME280;10759;51.982;9.232;2023-02-11T08:16:02;101917.03;;;5.85;100.00
21203;BME280;10759;51.982;9.232;2023-02-11T08:18:31;101909.97;;;5.89;100.00
21203;BME280;10759;51.982;9.232;2023-02-11T08:21:04;101928.53;;;5.79;100.00
21203;BME280;10759;51.982;9.232;2023-02-11T08:23:34;101929.47;;;5.88;100.00
21203;BME280;10759;51.982;9.232;2023-02-11T08:26:03;101931.25;;;5.89;100.00
21203;BME280;10759;51.982;9.232;2023-02-11T08:28:34;101892.16;;;5.74;100.00
21203;BME280;10759;51.982;9.232;2023-02-11T08:31:04;101917.06;;;5.93;100.00
21203;BME280;10759;51.982;9.232;2023-02-11T08:33:32;101922.47;;;5.96;100.00
21203;BME280;10759;51.982;9.232;2023-02-11T08:36:01;101931.22;;;5.81;100.00
21203;BME280;10759;51.982;9.232;2023-02-11T08:38:36;101929.50;;;5.92;100.00
21203;BME280;10759;51.982;9.232;2023-02-11T08:41:05;101913.47;;;5.81;100.00
21203;BME280;10759;51.982;9.232;2023-02-11T08:43:33;101866.31;;;5.56;100.00
21203;BME280;10759;51.982;9.232;2023-02-11T08:46:01;101940.22;;;6.01;100.00
21203;BME280;10759;51.982;9.232;2023-02-11T08:48:29;101918.78;;;5.83;100.00
21203;BME280;10759;51.982;9.232;2023-02-11T08:50:57;101940.28;;;6.09;100.00
21203;BME280;10759;51.982;9.232;2023-02-11T08:53:26;101941.09;;;6.00;100.00
21203;BME280;10759;51.982;9.232;2023-02-11T08:55:55;101921.63;;;6.03;100.00
21203;BME280;10759;51.982;9.232;2023-02-11T08:58:23;101933.19;;;6.14;100.00
21203;BME280;10759;51.982;9.232;2023-02-11T09:00:51;101942.97;;;6.17;100.00
21203;BME280;10759;51.982;9.232;2023-02-11T09:03:19;101942.06;;;6.13;100.00
21203;BME280;10759;51.982;9.232;2023-02-11T09:05:49;101951.81;;;6.08;100.00
21203;BME280;10759;51.982;9.232;2023-02-11T09:08:19;101950.91;;;6.09;100.00
21203;BME280;10759;51.982;9.232;2023-02-11T09:10:47;101946.47;;;6.13;100.00
21203;BME280;10759;51.982;9.232;2023-02-11T09:13:17;101933.03;;;5.90;100.00
21203;BME280;10759;51.982;9.232;2023-02-11T09:15:45;101966.00;;;6.10;100.00
21203;BME280;10759;51.982;9.232;2023-02-11T09:18:13;101963.34;;;6.09;100.00
21203;BME280;10759;51.982;9.232;2023-02-11T09:20:41;101955.38;;;6.16;100.00
21203;BME280;10759;51.982;9.232;2023-02-11T09:23:09;101974.03;;;6.19;100.00
21203;BME280;10759;51.982;9.232;2023-02-11T09:25:38;101959.84;;;6.22;100.00
21203;BME280;10759;51.982;9.232;2023-02-11T09:28:06;101965.13;;;6.14;100.00
21203;BME280;10759;51.982;9.232;2023-02-11T09:30:36;101942.00;;;6.01;100.00
21203;BME280;10759;51.982;9.232;2023-02-11T09:33:04;101934.88;;;6.00;100.00
21203;BME280;10759;51.982;9.232;2023-02-11T09:35:32;101973.13;;;6.14;100.00
21203;BME280;10759;51.982;9.232;2023-02-11T09:38:00;101968.69;;;6.13;100.00
21203;BME280;10759;51.982;9.232;2023-02-11T09:40:28;101972.19;;;6.06;100.00
21203;BME280;10759;51.982;9.232;2023-02-11T09:43:03;101953.44;;;5.89;100.00
21203;BME280;10759;51.982;9.232;2023-02-11T09:45:35;101973.06;;;6.04;100.00
21203;BME280;10759;51.982;9.232;2023-02-11T09:48:09;101981.13;;;6.14;100.00
21203;BME280;10759;51.982;9.232;2023-02-11T09:50:42;101974.91;;;6.15;100.00
21203;BME280;10759;51.982;9.232;2023-02-11T09:53:16;101954.41;;;5.99;100.00
21203;BME280;10759;51.982;9.232;2023-02-11T09:55:48;101988.16;;;6.03;100.00
21203;BME280;10759;51.982;9.232;2023-02-11T09:58:25;101945.38;;;5.80;100.00
21203;BME280;10759;51.982;9.232;2023-02-11T10:01:02;101997.06;;;6.11;100.00
21203;BME280;10759;51.982;9.232;2023-02-11T10:03:43;101887.53;;;5.48;100.00
21203;BME280;10759;51.982;9.232;2023-02-11T10:06:28;101976.66;;;6.09;100.00
21203;BME280;10759;51.982;9.232;2023-02-11T10:09:06;101999.72;;;6.08;100.00
21203;BME280;10759;51.982;9.232;2023-02-11T10:11:46;101821.72;;;5.16;100.00
21203;BME280;10759;51.982;9.232;2023-02-11T10:14:24;102001.56;;;6.18;100.00
21203;BME280;10759;51.982;9.232;2023-02-11T10:17:08;102010.47;;;6.23;100.00
21203;BME280;10759;51.982;9.232;2023-02-11T10:19:50;101998.81;;;6.06;100.00
21203;BME280;10759;51.982;9.232;2023-02-11T10:22:27;102018.38;;;6.14;100.00
21203;BME280;10759;51.982;9.232;2023-02-11T10:24:58;102014.94;;;6.31;100.00
21203;BME280;10759;51.982;9.232;2023-02-11T10:27:30;101974.78;;;5.94;100.00
21203;BME280;10759;51.982;9.232;2023-02-11T10:30:01;101999.78;;;6.20;100.00
21203;BME280;10759;51.982;9.232;2023-02-11T10:32:37;101990.78;;;5.98;100.00
21203;BME280;10759;51.982;9.232;2023-02-11T10:35:13;102026.50;;;6.33;100.00
21203;BME280;10759;51.982;9.232;2023-02-11T10:37:43;102007.81;;;6.27;100.00
21203;BME280;10759;51.982;9.232;2023-02-11T10:40:13;102022.91;;;6.32;100.00
21203;BME280;10759;51.982;9.232;2023-02-11T10:42:44;102028.25;;;6.34;100.00
21203;BME280;10759;51.982;9.232;2023-02-11T10:45:17;102000.72;;;6.26;100.00
21203;BME280;10759;51.982;9.232;2023-02-11T10:47:48;102019.44;;;6.44;100.00
21203;BME280;10759;51.982;9.232;2023-02-11T10:50:24;102006.09;;;6.38;100.00
21203;BME280;10759;51.982;9.232;2023-02-11T10:53:10;102007.91;;;6.43;100.00
21203;BME280;10759;51.982;9.232;2023-02-11T10:55:48;102040.78;;;6.53;100.00
21203;BME280;10759;51.982;9.232;2023-02-11T10:58:24;102038.13;;;6.50;100.00
21203;BME280;10759;51.982;9.232;2023-02-11T11:00:54;102040.81;;;6.59;100.00
21203;BME280;10759;51.982;9.232;2023-02-11T11:03:25;102024.84;;;6.61;100.00
21203;BME280;10759;51.982;9.232;2023-02-11T11:05:56;101949.94;;;5.95;100.00
21203;BME280;10759;51.982;9.232;2023-02-11T11:08:37;101941.06;;;5.94;100.00
21203;BME280;10759;51.982;9.232;2023-02-11T11:11:08;102038.06;;;6.44;100.00
21203;BME280;10759;51.982;9.232;2023-02-11T11:13:38;102038.13;;;6.53;100.00
21203;BME280;10759;51.982;9.232;2023-02-11T11:16:19;102032.81;;;6.56;100.00
21203;BME280;10759;51.982;9.232;2023-02-11T11:18:50;101982.03;;;6.22;100.00
21203;BME280;10759;51.982;9.232;2023-02-11T11:21:21;102005.28;;;6.51;100.00
21203;BME280;10759;51.982;9.232;2023-02-11T11:23:54;102026.63;;;6.57;100.00
21203;BME280;10759;51.982;9.232;2023-02-11T11:26:25;102026.66;;;6.65;100.00
21203;BME280;10759;51.982;9.232;2023-02-11T11:28:56;101987.53;;;6.59;100.00
21203;BME280;10759;51.982;9.232;2023-02-11T11:31:28;102026.69;;;6.76;100.00
21203;BME280;10759;51.982;9.232;2023-02-11T11:34:00;102016.03;;;6.79;100.00
21203;BME280;10759;51.982;9.232;2023-02-11T11:36:33;102027.53;;;6.65;100.00
21203;BME280;10759;51.982;9.232;2023-02-11T11:39:16;102010.66;;;6.68;100.00
21203;BME280;10759;51.982;9.232;2023-02-11T11:41:50;101979.50;;;6.47;100.00
21203;BME280;10759;51.982;9.232;2023-02-11T11:44:24;102005.31;;;6.62;100.00
21203;BME280;10759;51.982;9.232;2023-02-11T11:47:06;102001.75;;;6.55;100.00
21203;BME280;10759;51.982;9.232;2023-02-11T11:49:46;102018.66;;;6.66;100.00
21203;BME280;10759;51.982;9.232;2023-02-11T11:52:19;102022.16;;;6.59;100.00
21203;BME280;10759;51.982;9.232;2023-02-11T11:55:01;102010.69;;;6.70;100.00
21203;BME280;10759;51.982;9.232;2023-02-11T11:57:31;102018.66;;;6.74;100.00
21203;BME280;10759;51.982;9.232;2023-02-11T12:00:04;102008.94;;;6.75;100.00
21203;BME280;10759;51.982;9.232;2023-02-11T12:02:52;102010.75;;;6.91;100.00
21203;BME280;10759;51.982;9.232;2023-02-11T12:05:35;102011.63;;;6.87;100.00
21203;BME280;10759;51.982;9.232;2023-02-11T12:08:12;102004.53;;;7.01;100.00
21203;BME280;10759;51.982;9.232;2023-02-11T12:10:54;102017.03;;;7.07;100.00
21203;BME280;10759;51.982;9.232;2023-02-11T12:13:38;102009.88;;;7.01;100.00
21203;BME280;10759;51.982;9.232;2023-02-11T12:16:18;102009.03;;;7.07;100.00
21203;BME280;10759;51.982;9.232;2023-02-11T12:19:08;102012.59;;;7.12;100.00
21203;BME280;10759;51.982;9.232;2023-02-11T12:21:50;102008.16;;;7.20;100.00
21203;BME280;10759;51.982;9.232;2023-02-11T12:24:32;102001.91;;;7.15;100.00
21203;BME280;10759;51.982;9.232;2023-02-11T12:27:06;101989.47;;;7.11;100.00
21203;BME280;10759;51.982;9.232;2023-02-11T12:29:42;101996.59;;;7.15;100.00
21203;BME280;10759;51.982;9.232;2023-02-11T12:32:23;101986.81;;;7.16;100.00
21203;BME280;10759;51.982;9.232;2023-02-11T12:35:03;102008.16;;;7.32;100.00
21203;BME280;10759;51.982;9.232;2023-02-11T12:37:44;101922.78;;;6.82;100.00
21203;BME280;10759;51.982;9.232;2023-02-11T12:40:19;101996.59;;;7.26;100.00
21203;BME280;10759;51.982;9.232;2023-02-11T12:42:59;102005.50;;;7.22;100.00
21203;BME280;10759;51.982;9.232;2023-02-11T12:45:55;102006.41;;;7.38;100.00
21203;BME280;10759;51.982;9.232;2023-02-11T12:51:32;102005.50;;;7.48;100.00
21203;BME280;10759;51.982;9.232;2023-02-11T12:54:16;102003.75;;;7.44;100.00
21203;BME280;10759;51.982;9.232;2023-02-11T12:56:51;102009.97;;;7.47;100.00
21203;BME280;10759;51.982;9.232;2023-02-11T12:59:30;101985.94;;;7.40;100.00
21203;BME280;10759;51.982;9.232;2023-02-11T13:02:08;101975.28;;;7.35;100.00
21203;BME280;10759;51.982;9.232;2023-02-11T13:04:45;101976.16;;;7.40;100.00
21203;BME280;10759;51.982;9.232;2023-02-11T13:07:18;101958.38;;;7.27;100.00
21203;BME280;10759;51.982;9.232;2023-02-11T13:09:55;102002.84;;;7.54;100.00
21203;BME280;10759;51.982;9.232;2023-02-11T13:12:26;102015.28;;;7.47;100.00
21203;BME280;10759;51.982;9.232;2023-02-11T13:15:14;102011.75;;;7.51;100.00
21203;BME280;10759;51.982;9.232;2023-02-11T13:17:49;102009.06;;;7.42;100.00
21203;BME280;10759;51.982;9.232;2023-02-11T13:20:34;102005.53;;;7.49;100.00
21203;BME280;10759;51.982;9.232;2023-02-11T13:23:12;101938.81;;;6.97;100.00
21203;BME280;10759;51.982;9.232;2023-02-11T13:25:48;102005.53;;;7.43;100.00